Time;durP1;ratioP1;P1;durP2;ratioP2;P2;SDS_P1;SDS_P2;PMS_P1;PMS_P2;Temp;Humidity;BMP_temperature;BMP_pressure;BME280_temperature;BME280_humidity;BME280_pressure;Samples;Min_cycle;Max_cycle;Signal;HPM_P1;HPM_P2
2021/01/03 00:03:14;;;;;;;10.07;8.07;;;16.00;68.00;;;;;;10494354;28;20119;-62
2021/01/03 00:08:15;;;;;;;14.35;9.82;;;16.00;68.00;;;;;;10494278;28;20055;-62
2021/01/03 00:13:15;;;;;;;14.02;9.52;;;16.00;68.00;;;;;;10494381;28;20099;-62
2021/01/03 00:18:16;;;;;;;13.85;9.52;;;16.00;68.00;;;;;;10475692;28;571131;-62
2021/01/03 00:23:19;;;;;;;16.38;8.77;;;15.90;68.00;;;;;;10489921;28;20186;-62
2021/01/03 00:28:20;;;;;;;13.43;8.55;;;15.90;68.60;;;;;;10495787;28;20040;-62
2021/01/03 00:33:21;;;;;;;15.93;9.98;;;15.90;67.90;;;;;;10496229;28;20403;-62
2021/01/03 00:38:22;;;;;;;13.50;8.90;;;15.90;68.00;;;;;;10494260;28;20027;-62
2021/01/03 00:43:23;;;;;;;11.80;8.15;;;15.80;68.00;;;;;;10495737;28;20029;-62
2021/01/03 00:48:23;;;;;;;10.63;8.00;;;15.80;68.00;;;;;;10495283;28;20033;-63
2021/01/03 00:53:24;;;;;;;14.25;9.07;;;15.80;67.90;;;;;;10495410;28;20392;-62
2021/01/03 00:58:25;;;;;;;12.90;8.75;;;15.80;67.90;;;;;;10493996;28;20029;-62
2021/01/03 01:03:28;;;;;;;13.07;8.18;;;15.80;67.80;;;;;;10488517;28;20123;-62
2021/01/03 01:08:28;;;;;;;13.23;8.63;;;15.70;67.80;;;;;;10502544;28;20114;-62
2021/01/03 01:13:29;;;;;;;13.88;8.63;;;15.80;67.90;;;;;;10502369;28;20162;-62
2021/01/03 01:18:30;;;;;;;13.77;8.88;;;15.70;67.80;;;;;;10501894;28;20139;-63
2021/01/03 01:23:31;;;;;;;13.82;9.05;;;15.70;67.80;;;;;;10517369;28;20033;-62
2021/01/03 01:28:31;;;;;;;15.20;8.98;;;15.70;67.80;;;;;;10501275;28;20029;-62
2021/01/03 01:33:32;;;;;;;11.45;8.68;;;15.70;67.90;;;;;;10501530;28;20407;-63
2021/01/03 01:38:33;;;;;;;11.50;7.72;;;15.70;67.80;;;;;;10501298;28;20102;-63
2021/01/03 01:43:34;;;;;;;11.50;8.35;;;15.60;67.90;;;;;;10501048;28;20085;-63
2021/01/03 01:48:40;;;;;;;10.30;8.27;;;15.60;67.80;;;;;;10500677;28;20403;-63
2021/01/03 01:54:03;;;;;;;13.20;9.02;;;15.60;67.80;;;;;;10479039;28;20476;-63
2021/01/03 01:59:43;;;;;;;10.52;8.18;;;15.60;67.80;;;;;;10500209;28;20024;-63
2021/01/03 02:05:02;;;;;;;12.20;8.60;;;15.60;67.80;;;;;;10499150;28;20078;-63
2021/01/03 02:10:33;;;;;;;11.00;7.73;;;15.60;67.80;;;;;;10498664;28;20086;-63
2021/01/03 02:15:36;;;;;;;13.05;8.95;;;15.50;67.80;;;;;;10496964;28;20052;-64
2021/01/03 02:21:31;;;;;;;11.82;8.13;;;15.50;67.80;;;;;;10499546;28;20103;-63
2021/01/03 02:26:38;;;;;;;10.13;7.85;;;15.50;67.80;;;;;;10473971;28;20127;-63
2021/01/03 02:31:44;;;;;;;13.13;7.97;;;15.50;67.80;;;;;;10497921;28;20044;-63
2021/01/03 02:36:55;;;;;;;9.73;7.65;;;15.50;67.80;;;;;;10497652;28;20024;-64
2021/01/03 02:42:02;;;;;;;12.93;8.82;;;15.50;67.70;;;;;;10497154;28;20031;-64
2021/01/03 02:47:03;;;;;;;9.93;7.30;;;15.50;67.80;;;;;;10496712;28;20032;-65
2021/01/03 02:52:10;;;;;;;10.82;7.47;;;15.40;67.70;;;;;;10498068;28;20087;-64
2021/01/03 02:57:11;;;;;;;11.55;8.40;;;15.40;67.70;;;;;;10498096;28;20032;-64
2021/01/03 03:02:12;;;;;;;10.93;8.48;;;15.40;67.60;;;;;;10497901;28;20472;-64
2021/01/03 03:07:13;;;;;;;11.20;7.80;;;15.40;67.70;;;;;;10497456;28;20028;-65
2021/01/03 03:12:13;;;;;;;11.65;7.80;;;15.40;67.70;;;;;;10496331;28;20112;-65
2021/01/03 03:17:14;;;;;;;10.23;7.43;;;15.40;67.70;;;;;;10496943;28;20493;-65
2021/01/03 03:22:15;;;;;;;9.60;7.45;;;15.30;67.60;;;;;;10497550;28;20530;-64
2021/01/03 03:27:16;;;;;;;11.27;7.72;;;15.30;67.60;;;;;;10497021;28;20469;-64
2021/01/03 03:32:16;;;;;;;11.15;7.65;;;15.30;67.60;;;;;;10497052;28;20020;-64
2021/01/03 03:37:18;;;;;;;10.25;7.80;;;15.30;67.60;;;;;;10495774;28;20032;-65
2021/01/03 03:42:19;;;;;;;10.15;7.65;;;15.30;67.60;;;;;;10479049;28;20115;-65
2021/01/03 03:47:19;;;;;;;10.70;6.75;;;15.30;67.60;;;;;;10495316;28;20037;-66
2021/01/03 03:52:20;;;;;;;10.10;7.22;;;15.30;67.60;;;;;;10496397;28;20068;-65
2021/01/03 03:57:21;;;;;;;10.50;7.60;;;15.30;67.60;;;;;;10493716;28;20119;-67
2021/01/03 04:02:21;;;;;;;10.18;7.43;;;15.30;67.50;;;;;;10496000;28;20455;-66
2021/01/03 04:07:22;;;;;;;10.52;7.03;;;15.20;67.50;;;;;;10494998;28;20496;-65
2021/01/03 04:12:23;;;;;;;11.07;7.53;;;15.20;67.50;;;;;;10495012;28;20103;-66
2021/01/03 04:17:23;;;;;;;10.48;7.07;;;15.20;67.50;;;;;;10496065;28;20390;-67
2021/01/03 04:22:28;;;;;;;9.23;5.97;;;15.20;67.50;;;;;;10494636;28;20388;-65
2021/01/03 04:27:29;;;;;;;11.38;7.05;;;15.20;67.40;;;;;;10495929;28;20029;-66
2021/01/03 04:32:30;;;;;;;11.38;7.50;;;15.20;67.40;;;;;;10495845;28;20136;-65
2021/01/03 04:37:30;;;;;;;11.43;6.60;;;15.10;67.40;;;;;;10494518;28;20123;-66
2021/01/03 04:42:34;;;;;;;10.45;6.57;;;15.10;67.40;;;;;;10501503;28;20085;-66
2021/01/03 04:48:01;;;;;;;9.43;6.88;;;15.10;67.40;;;;;;10502953;28;20733;-66
2021/01/03 04:53:26;;;;;;;8.95;7.00;;;15.10;67.40;;;;;;10501443;28;20028;-67
2021/01/03 04:58:45;;;;;;;11.25;7.88;;;15.10;67.40;;;;;;10501446;28;20032;-66
2021/01/03 05:03:59;;;;;;;9.38;6.50;;;15.10;67.50;;;;;;10494526;28;20028;-67
2021/01/03 05:09:05;;;;;;;10.50;7.68;;;15.10;67.40;;;;;;10498752;28;20028;-66
2021/01/03 05:14:25;;;;;;;10.57;7.40;;;15.10;67.40;;;;;;10500534;28;20033;-66
2021/01/03 05:19:26;;;;;;;11.93;7.53;;;15.00;67.30;;;;;;10489064;28;20032;-66
2021/01/03 05:24:43;;;;;;;10.32;7.63;;;15.00;67.30;;;;;;10501081;28;20032;-67
2021/01/03 05:29:44;;;;;;;10.65;7.55;;;15.00;67.30;;;;;;10492252;28;20052;-67
2021/01/03 05:34:45;;;;;;;9.70;7.03;;;15.00;67.30;;;;;;10485737;28;20075;-65
2021/01/03 05:39:47;;;;;;;10.57;6.72;;;15.00;67.40;;;;;;10496813;28;20158;-67
2021/01/03 05:45:24;;;;;;;8.43;6.13;;;15.00;67.30;;;;;;10496306;28;20036;-67
2021/01/03 05:50:24;;;;;;;9.15;6.55;;;15.10;67.60;;;;;;10491656;28;20362;-67
2021/01/03 05:55:29;;;;;;;12.00;7.30;;;15.10;67.60;;;;;;10504257;28;20127;-68
2021/01/03 06:00:30;;;;;;;9.93;6.70;;;15.40;67.20;;;;;;10490252;28;20376;-68
2021/01/03 06:05:32;;;;;;;7.38;5.72;;;15.60;66.60;;;;;;10498401;28;20043;-67
2021/01/03 06:10:38;;;;;;;7.70;5.72;;;15.80;66.10;;;;;;10495025;28;20183;-69
2021/01/03 06:15:51;;;;;;;9.27;6.40;;;16.00;65.70;;;;;;10494856;28;20490;-68
2021/01/03 06:20:51;;;;;;;7.68;5.30;;;16.10;65.40;;;;;;10496225;28;20078;-68
2021/01/03 06:25:58;;;;;;;8.20;5.05;;;16.20;65.40;;;;;;10487428;28;20564;-68
2021/01/03 06:31:23;;;;;;;8.57;5.50;;;16.30;65.20;;;;;;10490505;28;20028;-66
2021/01/03 06:36:47;;;;;;;7.57;5.15;;;16.40;65.10;;;;;;10491051;28;20103;-69
2021/01/03 06:41:53;;;;;;;7.10;5.38;;;16.50;64.70;;;;;;10493514;28;20043;-68
2021/01/03 06:47:49;;;;;;;8.05;5.40;;;16.50;64.60;;;;;;10485116;28;20477;-69
2021/01/03 06:53:30;;;;;;;7.00;4.85;;;16.70;65.00;;;;;;10495440;28;20534;-67
2021/01/03 06:58:58;;;;;;;6.93;4.78;;;16.70;64.20;;;;;;10499330;28;20039;-64
2021/01/03 07:04:08;;;;;;;9.82;4.32;;;16.80;64.20;;;;;;10488904;28;20050;-60
2021/01/03 07:09:12;;;;;;;9.05;5.13;;;16.70;65.20;;;;;;10494412;28;20041;-62
2021/01/03 07:14:21;;;;;;;13.38;5.07;;;16.70;65.80;;;;;;10495210;28;20032;-58
2021/01/03 07:19:31;;;;;;;;;;;16.80;66.20;;;;;;10474298;28;20090;-62
2021/01/03 07:24:35;;;;;;;9.23;5.10;;;16.70;66.70;;;;;;10484126;28;20403;-58
2021/01/03 07:30:09;;;;;;;9.23;5.38;;;16.70;67.00;;;;;;10495158;28;20028;-57
2021/01/03 07:35:21;;;;;;;9.93;5.72;;;16.70;66.90;;;;;;10472194;28;20044;-59
2021/01/03 07:40:24;;;;;;;8.20;5.00;;;16.70;67.00;;;;;;10496494;28;20056;-60
2021/01/03 07:45:27;;;;;;;11.95;5.20;;;16.70;67.00;;;;;;10495983;28;20084;-61
2021/01/03 07:50:38;;;;;;;10.60;5.22;;;16.80;67.40;;;;;;10495974;28;20032;-60
2021/01/03 07:55:39;;;;;;;12.80;5.50;;;16.80;67.60;;;;;;10489429;28;20031;-69
2021/01/03 08:00:43;;;;;;;11.63;4.85;;;16.80;67.20;;;;;;10487854;28;20039;-61
2021/01/03 08:05:45;;;;;;;14.27;5.93;;;16.80;67.00;;;;;;10489096;28;20108;-61
2021/01/03 08:10:48;;;;;;;9.20;5.65;;;16.90;66.90;;;;;;10476687;28;20106;-61
2021/01/03 08:15:49;;;;;;;12.75;4.80;;;16.80;66.40;;;;;;10499132;28;20048;-60
2021/01/03 08:20:50;;;;;;;9.70;5.45;;;16.80;66.40;;;;;;10502783;28;20047;-58
2021/01/03 08:26:14;;;;;;;8.50;4.57;;;16.80;66.10;;;;;;10501019;28;20037;-57
2021/01/03 08:31:14;;;;;;;11.43;5.32;;;16.80;66.00;;;;;;10509141;28;20086;-59
2021/01/03 08:36:23;;;;;;;11.40;5.97;;;16.80;66.10;;;;;;10503484;28;20028;-61
2021/01/03 08:41:29;;;;;;;8.13;5.28;;;16.80;66.20;;;;;;10502936;28;20439;-59
2021/01/03 08:46:33;;;;;;;12.05;5.97;;;16.80;66.40;;;;;;10468673;28;20072;-59
2021/01/03 08:51:35;;;;;;;12.25;5.95;;;17.00;66.80;;;;;;10478129;28;20036;-62
2021/01/03 08:56:49;;;;;;;11.88;6.05;;;17.00;66.60;;;;;;10482303;28;20040;-57
2021/01/03 09:01:51;;;;;;;16.25;5.43;;;17.10;65.80;;;;;;10497277;28;20024;-64
2021/01/03 09:06:55;;;;;;;9.50;5.78;;;17.20;65.50;;;;;;10497230;28;20046;-66
2021/01/03 09:12:06;;;;;;;9.43;5.43;;;17.20;65.10;;;;;;10479995;28;20029;-63
2021/01/03 09:17:21;;;;;;;10.98;4.60;;;17.20;65.00;;;;;;10493642;28;20444;-64
2021/01/03 09:22:34;;;;;;;9.00;5.00;;;17.20;65.00;;;;;;10476346;28;20033;-64
2021/01/03 09:27:35;;;;;;;11.32;4.45;;;17.20;65.00;;;;;;10480132;28;20068;-63
2021/01/03 09:32:37;;;;;;;10.10;5.10;;;17.20;65.10;;;;;;10460469;28;20028;-63
2021/01/03 09:37:41;;;;;;;10.48;5.60;;;17.20;65.20;;;;;;10485908;28;20032;-64
2021/01/03 09:43:29;;;;;;;10.68;5.32;;;17.20;64.80;;;;;;10474242;28;20028;-63
2021/01/03 09:48:36;;;;;;;9.73;4.97;;;17.30;64.70;;;;;;10480375;28;20098;-63
2021/01/03 09:53:41;;;;;;;10.43;5.18;;;17.20;64.80;;;;;;10493078;28;20028;-63
2021/01/03 09:58:49;;;;;;;7.90;5.05;;;17.20;65.00;;;;;;10486782;28;20083;-60
2021/01/03 10:03:50;;;;;;;7.32;5.60;;;17.20;64.40;;;;;;10497594;28;20472;-59
2021/01/03 10:09:29;;;;;;;13.95;5.10;;;17.20;64.20;;;;;;10497890;28;20048;-62
2021/01/03 10:14:36;;;;;;;8.95;4.65;;;17.20;64.20;;;;;;10471870;28;20056;-59
2021/01/03 10:19:36;;;;;;;13.57;4.70;;;17.20;64.60;;;;;;10494490;28;20040;-62
2021/01/03 10:24:37;;;;;;;9.73;5.20;;;17.20;64.90;;;;;;10490916;28;20119;-60
2021/01/03 10:29:38;;;;;;;13.13;5.50;;;17.20;64.90;;;;;;10468329;28;20051;-60
2021/01/03 10:34:39;;;;;;;15.55;5.20;;;17.20;64.80;;;;;;10485398;28;20094;-61
2021/01/03 10:39:40;;;;;;;10.23;5.20;;;17.20;64.70;;;;;;10485672;28;20040;-63
2021/01/03 10:44:41;;;;;;;15.63;5.25;;;17.20;64.90;;;;;;10496112;28;20036;-61
2021/01/03 10:49:42;;;;;;;9.52;4.15;;;17.20;65.00;;;;;;10496067;28;20032;-62
2021/01/03 10:54:43;;;;;;;11.73;5.30;;;17.20;64.90;;;;;;10487564;28;20569;-61
2021/01/03 10:59:43;;;;;;;14.73;4.70;;;17.20;64.80;;;;;;10482453;28;20040;-61
2021/01/03 11:04:44;;;;;;;8.82;4.55;;;17.20;65.00;;;;;;10484143;28;20119;-63
2021/01/03 11:09:46;;;;;;;12.13;5.07;;;17.20;64.90;;;;;;10487734;28;20568;-66
2021/01/03 11:14:47;;;;;;;12.15;4.68;;;17.20;65.10;;;;;;10486940;28;20090;-61
2021/01/03 11:19:47;;;;;;;10.65;4.30;;;17.20;65.20;;;;;;10468384;28;20094;-58
2021/01/03 11:24:48;;;;;;;12.10;5.25;;;17.20;64.90;;;;;;10466911;28;20052;-64
2021/01/03 11:29:51;;;;;;;15.38;5.20;;;17.20;64.80;;;;;;10482622;28;20052;-64
2021/01/03 11:34:53;;;;;;;17.05;4.20;;;17.20;64.80;;;;;;10494804;28;20024;-62
2021/01/03 11:39:55;;;;;;;19.00;4.68;;;17.20;65.10;;;;;;10485085;28;20086;-60
2021/01/03 11:44:57;;;;;;;12.95;4.47;;;17.30;65.10;;;;;;10483628;28;20036;-56
2021/01/03 11:49:57;;;;;;;12.88;4.70;;;17.20;65.60;;;;;;10469128;28;20385;-58
2021/01/03 11:54:59;;;;;;;15.48;4.38;;;17.20;65.70;;;;;;10483747;28;20039;-63
2021/01/03 11:59:59;;;;;;;11.23;4.70;;;17.20;66.00;;;;;;10504691;28;20507;-60
2021/01/03 12:05:00;;;;;;;13.43;4.20;;;17.20;66.70;;;;;;10495415;28;20112;-59
2021/01/03 12:10:02;;;;;;;15.95;5.40;;;17.20;66.10;;;;;;10493502;28;20514;-56
2021/01/03 12:15:05;;;;;;;12.45;4.75;;;17.20;67.90;;;;;;10493780;28;20082;-58
2021/01/03 12:20:07;;;;;;;11.15;4.57;;;17.20;66.70;;;;;;10492283;28;20090;-57
2021/01/03 12:25:09;;;;;;;12.07;4.32;;;17.20;66.30;;;;;;10491252;28;20039;-58
2021/01/03 12:30:11;;;;;;;11.10;4.53;;;17.20;66.20;;;;;;10494385;28;20056;-58
2021/01/03 12:35:12;;;;;;;9.63;4.43;;;17.30;66.30;;;;;;10493593;28;20032;-59
2021/01/03 12:40:14;;;;;;;14.00;5.30;;;17.30;66.40;;;;;;10493063;28;20112;-58
2021/01/03 12:45:15;;;;;;;16.42;5.10;;;17.30;66.20;;;;;;10493901;28;20020;-58
2021/01/03 12:50:16;;;;;;;14.75;4.85;;;17.30;66.20;;;;;;10484787;28;20488;-56
2021/01/03 12:55:17;;;;;;;16.15;5.10;;;17.30;65.90;;;;;;10493114;28;20044;-56
2021/01/03 13:00:18;;;;;;;15.80;4.53;;;17.20;66.00;;;;;;10495190;28;20115;-59
2021/01/03 13:05:19;;;;;;;17.13;4.57;;;17.20;65.80;;;;;;10501512;28;20051;-57
2021/01/03 13:10:20;;;;;;;14.90;4.47;;;17.30;65.50;;;;;;10505444;28;20031;-59
2021/01/03 13:15:21;;;;;;;18.80;4.72;;;17.30;65.30;;;;;;10498698;28;20052;-58
2021/01/03 13:20:22;;;;;;;13.95;4.20;;;17.20;65.30;;;;;;10495431;28;20166;-62
2021/01/03 13:25:22;;;;;;;22.00;7.43;;;17.30;65.00;;;;;;10500560;28;20035;-62
2021/01/03 13:30:23;;;;;;;20.50;5.22;;;17.20;64.80;;;;;;10498071;28;20029;-62
2021/01/03 13:35:24;;;;;;;10.77;4.22;;;17.30;64.70;;;;;;10499312;28;20044;-61
2021/01/03 13:40:26;;;;;;;13.27;4.80;;;17.30;64.70;;;;;;10499717;28;20055;-62
2021/01/03 13:45:26;;;;;;;11.27;3.90;;;17.30;64.60;;;;;;10497091;28;20471;-61
2021/01/03 13:50:27;;;;;;;8.70;3.25;;;17.30;64.60;;;;;;10498116;28;20163;-61
2021/01/03 13:55:29;;;;;;;10.23;4.20;;;17.30;64.40;;;;;;10498238;28;20457;-62
2021/01/03 14:00:30;;;;;;;11.95;4.35;;;17.30;64.30;;;;;;10499552;28;20036;-62
2021/01/03 14:05:31;;;;;;;8.88;3.20;;;17.30;64.20;;;;;;10499663;28;20028;-62
2021/01/03 14:10:31;;;;;;;8.68;3.10;;;17.30;64.10;;;;;;10499242;28;20104;-61
2021/01/03 14:15:32;;;;;;;7.32;3.33;;;17.30;64.20;;;;;;10513838;28;20135;-62
2021/01/03 14:20:33;;;;;;;6.55;3.15;;;17.30;64.10;;;;;;10499398;28;20051;-62
2021/01/03 14:25:34;;;;;;;9.02;4.10;;;17.30;64.00;;;;;;10497659;28;20056;-61
2021/01/03 14:30:35;;;;;;;7.18;3.10;;;17.30;64.70;;;;;;10498977;28;20016;-62
2021/01/03 14:35:45;;;;;;;7.50;3.22;;;17.30;64.00;;;;;;10498251;28;20039;-62
2021/01/03 14:40:50;;;;;;;;;;;17.30;63.90;;;;;;10497857;28;20032;-62
2021/01/03 14:45:59;;;;;;;6.75;2.85;;;17.30;63.90;;;;;;10497847;28;19916;-62
2021/01/03 14:51:16;;;;;;;;;;;17.30;63.90;;;;;;10498454;28;20535;-62
2021/01/03 14:56:54;;;;;;;6.93;3.65;;;17.30;63.90;;;;;;10496445;28;19939;-61
2021/01/03 15:02:06;;;;;;;8.85;3.30;;;17.30;63.70;;;;;;10504548;28;20077;-61
2021/01/03 15:07:30;;;;;;;7.55;3.15;;;17.30;63.70;;;;;;10496930;28;20032;-62
2021/01/03 15:12:31;;;;;;;5.70;2.90;;;17.30;63.70;;;;;;10495964;28;20017;-62
2021/01/03 15:17:45;;;;;;;6.30;2.75;;;17.30;63.50;;;;;;10496673;28;20532;-62
2021/01/03 15:22:59;;;;;;;3.85;2.55;;;17.30;63.50;;;;;;10508355;28;20063;-61
2021/01/03 15:28:00;;;;;;;5.63;2.67;;;17.30;63.40;;;;;;10496510;28;20119;-62
2021/01/03 15:33:08;;;;;;;4.28;2.72;;;17.30;63.50;;;;;;10495687;28;20472;-62
2021/01/03 15:38:13;;;;;;;5.00;2.63;;;17.30;63.40;;;;;;10495601;28;20043;-62
2021/01/03 15:44:06;;;;;;;3.60;2.33;;;17.30;63.40;;;;;;10484796;28;20119;-61
2021/01/03 15:49:21;;;;;;;7.15;2.47;;;17.30;63.20;;;;;;10407335;28;20127;-61
2021/01/03 15:54:22;;;;;;;8.93;3.40;;;17.30;63.40;;;;;;10484424;28;20036;-62
2021/01/03 15:59:24;;;;;;;11.05;3.85;;;17.40;63.90;;;;;;10495857;28;20112;-59
2021/01/03 16:04:25;;;;;;;11.13;3.33;;;17.60;64.70;;;;;;10494524;28;20032;-63
2021/01/03 16:09:25;;;;;;;7.05;3.10;;;17.70;64.70;;;;;;10494777;28;20032;-60
2021/01/03 16:14:26;;;;;;;14.43;3.17;;;17.90;64.30;;;;;;10494195;28;20039;-62
2021/01/03 16:19:47;;;;;;;9.43;3.03;;;18.00;64.80;;;;;;10494378;28;20064;-60
2021/01/03 16:25:04;;;;;;;13.20;3.30;;;18.10;64.40;;;;;;10494439;28;20384;-62
2021/01/03 16:30:33;;;;;;;23.95;3.25;;;18.20;64.50;;;;;;10494589;28;20430;-58
2021/01/03 16:36:21;;;;;;;22.63;4.30;;;18.20;64.30;;;;;;10488450;28;20028;-63
2021/01/03 16:41:52;;;;;;;16.27;3.88;;;18.40;63.80;;;;;;10469099;28;20048;-64
2021/01/03 16:47:32;;;;;;;11.70;2.58;;;18.40;63.90;;;;;;10472066;28;20027;-63
2021/01/03 16:52:40;;;;;;;11.37;3.70;;;18.50;63.00;;;;;;10489523;28;20060;-65
2021/01/03 16:58:34;;;;;;;28.40;5.68;;;18.70;63.10;;;;;;10496676;28;21315;-61
2021/01/03 17:03:49;;;;;;;20.58;8.68;;;18.80;63.60;;;;;;10462827;28;20393;-57
2021/01/03 17:09:29;;;;;;;14.02;6.13;;;18.80;64.30;;;;;;10493911;28;20040;-56
2021/01/03 17:15:07;;;;;;;;;;;18.80;64.20;;;;;;10501729;28;20107;-58
2021/01/03 17:20:11;;;;;;;10.07;6.18;;;18.80;66.80;;;;;;10500680;28;19916;-59
2021/01/03 17:25:20;;;;;;;7.45;4.28;;;18.80;66.10;;;;;;10501194;28;20036;-58
2021/01/03 17:31:10;;;;;;;8.63;4.55;;;18.80;66.50;;;;;;10500338;28;20021;-62
2021/01/03 17:36:29;;;;;;;6.00;4.23;;;18.90;65.70;;;;;;10482008;28;20036;-58
2021/01/03 17:41:35;;;;;;;14.07;5.13;;;18.90;66.00;;;;;;10495303;28;20048;-59
2021/01/03 17:46:53;;;;;;;9.43;3.67;;;18.80;66.10;;;;;;10494260;28;20032;-60
2021/01/03 17:51:54;;;;;;;10.32;4.03;;;18.80;65.50;;;;;;10500372;28;20037;-60
2021/01/03 17:56:55;;;;;;;10.48;3.65;;;18.80;65.50;;;;;;10499008;28;20214;-61
2021/01/03 18:01:55;;;;;;;6.90;3.63;;;18.70;65.40;;;;;;10500001;28;20183;-61
2021/01/03 18:06:57;;;;;;;7.93;3.42;;;18.70;65.40;;;;;;10494625;28;20032;-60
2021/01/03 18:11:58;;;;;;;7.32;2.92;;;18.70;65.30;;;;;;10498717;28;20025;-60
2021/01/03 18:16:59;;;;;;;8.15;3.15;;;18.70;65.00;;;;;;10498996;28;20049;-62
2021/01/03 18:21:59;;;;;;;6.55;2.83;;;18.70;65.00;;;;;;10497821;28;20397;-61
2021/01/03 18:27:01;;;;;;;10.73;2.95;;;18.70;64.80;;;;;;10501766;28;20459;-58
2021/01/03 18:32:03;;;;;;;4.53;2.33;;;18.70;64.80;;;;;;10491573;28;20060;-57
2021/01/03 18:37:05;;;;;;;6.10;2.58;;;18.70;64.90;;;;;;10472187;28;20025;-59
2021/01/03 18:42:06;;;;;;;5.82;2.55;;;18.70;64.70;;;;;;10491595;28;20029;-61
2021/01/03 18:47:06;;;;;;;5.80;2.22;;;18.70;64.50;;;;;;10486717;28;20478;-61
2021/01/03 18:52:08;;;;;;;10.60;2.85;;;18.70;64.50;;;;;;10476202;28;20028;-62
2021/01/03 18:57:08;;;;;;;6.47;2.47;;;18.70;64.60;;;;;;10497086;28;20025;-59
2021/01/03 19:02:09;;;;;;;8.68;3.42;;;18.80;64.80;;;;;;10493746;28;20459;-59
2021/01/03 19:07:10;;;;;;;3.83;2.10;;;18.80;64.90;;;;;;10483366;28;20107;-59
2021/01/03 19:12:13;;;;;;;4.97;2.17;;;18.80;64.70;;;;;;10496726;28;20468;-59
2021/01/03 19:17:16;;;;;;;7.47;1.98;;;18.80;64.90;;;;;;10490347;28;20052;-57
2021/01/03 19:22:17;;;;;;;5.72;2.00;;;18.70;64.90;;;;;;10495584;28;20039;-56
2021/01/03 19:27:20;;;;;;;7.18;1.75;;;18.70;65.20;;;;;;10509232;28;20105;-58
2021/01/03 19:32:21;;;;;;;5.15;2.15;;;18.70;65.20;;;;;;10496289;28;20473;-59
2021/01/03 19:37:23;;;;;;;8.20;1.85;;;18.70;64.90;;;;;;10486981;28;20104;-57
2021/01/03 19:42:24;;;;;;;11.80;2.28;;;18.70;64.90;;;;;;10493415;28;20101;-59
2021/01/03 19:47:28;;;;;;;11.35;2.50;;;18.70;64.80;;;;;;10482118;28;20081;-58
2021/01/03 19:52:29;;;;;;;8.73;2.80;;;18.70;64.90;;;;;;10485834;28;20083;-60
2021/01/03 19:57:29;;;;;;;8.07;1.98;;;18.70;64.90;;;;;;10492613;28;20071;-60
2021/01/03 20:02:30;;;;;;;9.48;2.15;;;18.70;64.80;;;;;;10511444;28;20459;-60
2021/01/03 20:07:31;;;;;;;4.53;1.67;;;18.70;64.80;;;;;;10499647;28;20063;-60
2021/01/03 20:12:31;;;;;;;13.70;2.55;;;18.60;64.90;;;;;;10502276;28;20493;-60
2021/01/03 20:17:33;;;;;;;6.60;1.88;;;18.50;64.90;;;;;;10502995;28;20487;-59
2021/01/03 20:22:34;;;;;;;4.28;1.40;;;18.40;65.00;;;;;;10502429;28;20552;-60
2021/01/03 20:27:35;;;;;;;4.03;1.90;;;18.30;65.20;;;;;;10503792;28;20040;-60
2021/01/03 20:32:36;;;;;;;5.45;2.20;;;18.30;65.40;;;;;;10503162;28;20062;-59
2021/01/03 20:37:37;;;;;;;3.45;1.63;;;18.20;65.50;;;;;;10498984;28;20037;-59
2021/01/03 20:42:38;;;;;;;4.00;1.42;;;18.10;65.70;;;;;;10502442;28;20385;-59
2021/01/03 20:47:38;;;;;;;6.95;2.08;;;18.00;65.80;;;;;;10496454;28;20472;-60
2021/01/03 20:52:39;;;;;;;4.18;1.83;;;17.90;66.00;;;;;;10500137;28;20063;-60
2021/01/03 20:57:41;;;;;;;9.80;1.67;;;17.80;65.90;;;;;;10493260;28;20178;-60
2021/01/03 21:02:42;;;;;;;3.38;1.92;;;17.80;66.20;;;;;;10467615;28;20025;-60
2021/01/03 21:07:43;;;;;;;4.68;1.80;;;17.70;66.20;;;;;;10489942;28;20024;-60
2021/01/03 21:12:49;;;;;;;5.93;1.60;;;17.60;66.20;;;;;;10502074;28;20032;-60
2021/01/03 21:17:50;;;;;;;8.25;2.28;;;17.60;66.30;;;;;;10500552;28;20052;-60
2021/01/03 21:22:52;;;;;;;3.33;1.70;;;17.50;66.30;;;;;;10493320;28;20028;-60
2021/01/03 21:28:36;;;;;;;2.88;1.05;;;17.40;66.50;;;;;;10501290;28;20043;-60
2021/01/03 21:34:28;;;;;;;2.83;1.50;;;17.40;66.50;;;;;;10501578;28;20032;-60
2021/01/03 21:40:06;;;;;;;5.03;1.80;;;17.30;66.50;;;;;;10498176;28;20055;-60
2021/01/03 21:45:18;;;;;;;2.75;1.33;;;17.20;66.50;;;;;;10500603;28;20115;-60
2021/01/03 21:50:45;;;;;;;4.32;1.83;;;17.20;66.60;;;;;;10500652;28;20108;-59
2021/01/03 21:56:02;;;;;;;5.75;1.90;;;17.10;66.50;;;;;;10500370;28;20071;-60
2021/01/03 22:01:49;;;;;;;5.05;1.55;;;17.10;66.50;;;;;;10497661;28;20016;-60
2021/01/03 22:07:24;;;;;;;3.00;1.20;;;17.00;66.60;;;;;;10489492;28;20094;-60
2021/01/03 22:13:07;;;;;;;5.13;1.95;;;16.90;66.50;;;;;;10480576;28;20107;-59
2021/01/03 22:18:41;;;;;;;2.60;1.50;;;16.90;66.60;;;;;;10497894;28;20130;-60
2021/01/03 22:24:08;;;;;;;2.97;1.30;;;16.80;66.70;;;;;;10496249;28;20029;-60
2021/01/03 22:29:40;;;;;;;3.08;1.52;;;16.80;66.70;;;;;;10499149;28;20040;-60
2021/01/03 22:35:02;;;;;;;2.97;1.35;;;16.80;66.80;;;;;;10497875;28;20056;-60
2021/01/03 22:40:27;;;;;;;3.47;1.33;;;16.80;66.80;;;;;;10498639;28;20029;-60
2021/01/03 22:46:22;;;;;;;2.97;1.30;;;16.70;66.90;;;;;;10513982;28;20033;-60
2021/01/03 22:52:06;;;;;;;3.08;1.60;;;16.70;66.80;;;;;;10475507;28;20050;-60
2021/01/03 22:57:15;;;;;;;3.40;1.40;;;16.60;66.80;;;;;;10488401;28;20401;-60
2021/01/03 23:02:35;;;;;;;2.03;1.15;;;16.60;66.80;;;;;;10497519;28;20061;-60
2021/01/03 23:07:59;;;;;;;4.18;1.70;;;16.50;66.80;;;;;;10497373;28;20033;-60
2021/01/03 23:13:25;;;;;;;2.83;1.63;;;16.50;66.80;;;;;;10495964;28;20025;-60
2021/01/03 23:18:48;;;;;;;3.15;1.60;;;16.50;66.80;;;;;;10487610;28;20056;-60
2021/01/03 23:24:09;;;;;;;2.05;1.17;;;16.40;66.80;;;;;;10494885;28;20111;-60
2021/01/03 23:29:22;;;;;;;2.83;1.42;;;16.40;66.80;;;;;;10487091;28;20037;-60
2021/01/03 23:34:29;;;;;;;2.85;1.77;;;16.40;66.80;;;;;;10487690;28;20484;-60
2021/01/03 23:39:39;;;;;;;3.20;1.50;;;16.40;66.90;;;;;;10496421;28;20036;-60
2021/01/03 23:45:03;;;;;;;;;;;16.40;66.90;;;;;;10486859;28;20476;-60
2021/01/03 23:50:14;;;;;;;2.78;1.73;;;16.30;66.80;;;;;;10477802;28;19948;-60
2021/01/03 23:55:47;;;;;;;2.35;1.33;;;16.30;66.80;;;;;;10496691;28;20450;-60
